createdAt,value
2022-07-28T00:00:44.003Z,69.14
2022-07-28T00:03:10.633Z,69.17
2022-07-28T00:05:37.385Z,69.96
2022-07-28T00:08:04.185Z,70.08
2022-07-28T00:10:32.203Z,71.26
2022-07-28T00:12:59.916Z,72.32
2022-07-28T00:15:27.003Z,71.53
2022-07-28T00:17:53.571Z,71.95
2022-07-28T00:20:20.995Z,71.70
2022-07-28T00:22:47.577Z,71.95
2022-07-28T00:25:15.158Z,71.91
2022-07-28T00:27:41.718Z,72.94
2022-07-28T00:30:08.941Z,71.74
2022-07-28T00:32:35.693Z,72.11
2022-07-28T00:35:02.634Z,72.83
2022-07-28T00:37:29.262Z,74.01
2022-07-28T00:39:56.059Z,74.59
2022-07-28T00:42:22.778Z,75.00
2022-07-28T00:44:49.435Z,74.47
2022-07-28T00:47:16.015Z,74.26
2022-07-28T00:49:44.781Z,75.32
2022-07-28T00:52:12.360Z,75.95
2022-07-28T00:54:39.215Z,75.62
2022-07-28T00:57:06.130Z,75.22
2022-07-28T00:59:33.830Z,75.48
2022-07-28T01:02:01.946Z,75.59
2022-07-28T01:04:29.898Z,75.91
2022-07-28T01:07:32.837Z,78.18
2022-07-28T01:10:08.206Z,78.41
2022-07-28T01:12:35.071Z,78.88
2022-07-28T01:15:06.176Z,76.96
2022-07-28T01:17:47.141Z,78.36
2022-07-28T01:20:18.625Z,78.45
2022-07-28T01:23:12.813Z,79.41
2022-07-28T01:26:14.005Z,79.61
2022-07-28T01:29:02.971Z,80.38
2022-07-28T01:31:38.374Z,79.46
2022-07-28T01:34:07.276Z,81.07
2022-07-28T01:36:40.016Z,79.11
2022-07-28T01:39:06.830Z,79.64
2022-07-28T01:41:34.631Z,80.40
2022-07-28T01:44:06.011Z,80.31
2022-07-28T01:46:34.087Z,80.79
2022-07-28T01:49:02.502Z,81.30
2022-07-28T01:51:31.092Z,81.01
2022-07-28T01:54:00.102Z,80.87
2022-07-28T01:56:30.575Z,80.68
2022-07-28T01:58:59.742Z,81.19
2022-07-28T02:01:27.565Z,81.55
2022-07-28T02:03:56.350Z,81.64
2022-07-28T02:06:24.939Z,82.19
2022-07-28T02:08:54.903Z,83.17
2022-07-28T02:11:40.133Z,82.69
2022-07-28T02:14:13.850Z,83.29
2022-07-28T02:16:44.631Z,83.50
2022-07-28T02:19:13.206Z,83.38
2022-07-28T02:21:41.028Z,85.14
2022-07-28T02:24:09.283Z,84.89
2022-07-28T02:26:41.448Z,85.38
2022-07-28T02:29:33.516Z,86.30
2022-07-28T02:32:27.233Z,86.65
2022-07-28T02:35:00.915Z,85.51
2022-07-28T02:37:34.771Z,85.69
2022-07-28T02:40:03.864Z,86.60
2022-07-28T02:42:34.094Z,86.64
2022-07-28T02:45:03.994Z,87.96
2022-07-28T02:47:35.044Z,87.58
2022-07-28T02:50:03.290Z,87.93
2022-07-28T02:52:30.809Z,87.73
2022-07-28T02:54:58.990Z,88.67
2022-07-28T02:57:26.870Z,88.67
2022-07-28T02:59:54.276Z,89.89
2022-07-28T03:02:22.363Z,89.31
2022-07-28T03:04:59.423Z,89.66
2022-07-28T03:07:30.632Z,90.53
2022-07-28T03:09:57.810Z,89.64
2022-07-28T03:12:25.080Z,90.45
2022-07-28T03:14:51.622Z,90.27
2022-07-28T03:17:19.310Z,90.27
2022-07-28T03:19:46.044Z,90.49
2022-07-28T03:22:12.755Z,90.68
2022-07-28T03:24:43.349Z,90.83
2022-07-28T03:27:26.115Z,91.60
2022-07-28T03:30:04.224Z,91.68
2022-07-28T03:32:34.423Z,90.57
2022-07-28T03:35:01.568Z,91.51
2022-07-28T03:37:33.736Z,92.24
2022-07-28T03:40:00.884Z,91.24
2022-07-28T03:42:28.808Z,91.87
2022-07-28T03:44:56.220Z,90.88
2022-07-28T03:47:24.422Z,92.17
2022-07-28T03:49:51.029Z,92.55
2022-07-28T03:52:18.720Z,92.15
2022-07-28T03:54:46.028Z,92.30
2022-07-28T03:57:13.853Z,92.83
2022-07-28T03:59:40.371Z,92.44
2022-07-28T04:02:06.916Z,92.59
2022-07-28T04:04:33.652Z,92.60
2022-07-28T04:07:00.169Z,92.99
2022-07-28T04:09:26.959Z,92.96
2022-07-28T04:11:53.646Z,93.50
2022-07-28T04:14:20.436Z,93.43
2022-07-28T04:16:47.197Z,93.83
2022-07-28T04:19:14.399Z,93.17
2022-07-28T04:21:41.118Z,93.72
2022-07-28T04:24:10.625Z,93.88
2022-07-28T04:26:37.593Z,94.20
2022-07-28T04:29:04.402Z,94.39
2022-07-28T04:31:31.238Z,94.65
2022-07-28T04:33:57.966Z,94.59
2022-07-28T04:36:25.798Z,95.19
2022-07-28T04:38:52.393Z,95.05
2022-07-28T04:41:18.935Z,95.14
2022-07-28T04:43:45.455Z,95.53
2022-07-28T04:46:15.001Z,96.11
2022-07-28T04:48:42.009Z,96.15
2022-07-28T04:51:08.629Z,96.09
2022-07-28T04:53:35.664Z,96.12
2022-07-28T04:56:02.918Z,96.19
2022-07-28T04:58:31.011Z,96.51
2022-07-28T05:00:57.879Z,96.62
2022-07-28T05:03:24.446Z,95.42
2022-07-28T05:05:54.438Z,95.97
2022-07-28T05:08:21.823Z,96.07
2022-07-28T05:10:51.872Z,96.22
2022-07-28T05:13:18.605Z,96.18
2022-07-28T05:15:45.378Z,95.28
2022-07-28T05:18:11.888Z,95.16
2022-07-28T05:20:38.445Z,95.16
2022-07-28T05:23:05.014Z,95.18
2022-07-28T05:25:31.486Z,94.47
2022-07-28T05:27:58.016Z,94.38
2022-07-28T05:30:24.641Z,94.11
2022-07-28T05:32:51.240Z,93.30
2022-07-28T05:35:17.847Z,93.32
2022-07-28T05:37:44.423Z,92.93
2022-07-28T05:40:14.231Z,91.89
2022-07-28T05:42:44.970Z,91.06
2022-07-28T05:45:16.543Z,91.25
2022-07-28T05:47:43.907Z,90.81
2022-07-28T05:50:11.027Z,90.75
2022-07-28T05:52:37.875Z,90.23
2022-07-28T05:55:06.439Z,90.19
2022-07-28T05:57:33.024Z,89.91
2022-07-28T05:59:59.619Z,89.64
2022-07-28T06:02:26.205Z,89.12
2022-07-28T06:04:52.751Z,89.11
2022-07-28T06:07:19.242Z,88.86
2022-07-28T06:09:45.765Z,88.75
2022-07-28T06:12:12.331Z,88.50
2022-07-28T06:14:38.876Z,88.04
2022-07-28T06:17:05.451Z,88.38
2022-07-28T06:19:31.949Z,88.46
2022-07-28T06:21:58.522Z,88.22
2022-07-28T06:24:25.155Z,88.06
2022-07-28T06:26:52.785Z,88.08
2022-07-28T06:29:20.671Z,87.39
2022-07-28T06:31:47.261Z,86.97
2022-07-28T06:34:14.219Z,85.95
2022-07-28T06:36:41.195Z,85.71
2022-07-28T06:39:08.294Z,84.95
2022-07-28T06:41:35.438Z,84.67
2022-07-28T06:44:01.933Z,84.16
2022-07-28T06:46:28.504Z,82.53
2022-07-28T06:48:55.111Z,82.04
2022-07-28T06:51:23.211Z,82.01
2022-07-28T06:53:49.874Z,81.62
2022-07-28T06:56:16.945Z,80.32
2022-07-28T06:58:47.049Z,80.64
2022-07-28T07:01:14.976Z,79.72
2022-07-28T07:03:42.446Z,78.63
2022-07-28T07:06:10.756Z,77.71
2022-07-28T07:08:37.526Z,77.51
2022-07-28T07:11:04.059Z,77.35
2022-07-28T07:13:30.744Z,76.36
2022-07-28T07:15:57.403Z,76.41
2022-07-28T07:18:24.053Z,75.52
2022-07-28T07:20:50.654Z,75.27
2022-07-28T07:23:17.303Z,74.57
2022-07-28T07:25:44.001Z,74.24
2022-07-28T07:28:10.653Z,73.17
2022-07-28T07:30:37.193Z,73.09
2022-07-28T07:33:03.932Z,73.08
2022-07-28T07:35:35.101Z,72.23
2022-07-28T07:38:01.743Z,71.83
2022-07-28T07:40:28.365Z,71.14
2022-07-28T07:42:54.879Z,70.14
2022-07-28T07:45:21.521Z,70.67
2022-07-28T07:47:48.085Z,69.75
2022-07-28T07:50:14.694Z,69.30
2022-07-28T07:52:41.395Z,69.19
2022-07-28T07:55:08.560Z,69.13
2022-07-28T07:57:35.242Z,68.02
2022-07-28T08:00:02.134Z,67.84
2022-07-28T08:02:28.839Z,68.23
2022-07-28T08:04:56.666Z,67.94
2022-07-28T08:07:23.408Z,67.36
2022-07-28T08:09:50.282Z,67.02
2022-07-28T08:12:18.329Z,65.62
2022-07-28T08:14:51.882Z,65.85
2022-07-28T08:17:21.001Z,64.75
2022-07-28T08:19:51.686Z,65.21
2022-07-28T08:22:18.182Z,64.84
2022-07-28T08:24:44.702Z,65.97
2022-07-28T08:27:11.315Z,65.10
2022-07-28T08:29:37.895Z,64.97
2022-07-28T08:32:04.699Z,64.25
2022-07-28T08:34:33.645Z,63.37
2022-07-28T08:37:02.980Z,63.14
2022-07-28T08:39:31.190Z,63.13
2022-07-28T08:42:20.512Z,62.23
2022-07-28T08:45:06.238Z,61.04
2022-07-28T08:47:45.880Z,61.93
2022-07-28T08:50:24.176Z,60.66
2022-07-28T08:52:54.212Z,61.02
2022-07-28T08:55:25.879Z,60.39
2022-07-28T08:58:00.175Z,60.90
2022-07-28T09:00:27.434Z,60.25
2022-07-28T09:02:54.939Z,58.57
2022-07-28T09:05:22.877Z,58.36
2022-07-28T09:07:54.391Z,57.94
2022-07-28T09:10:22.066Z,57.31
2022-07-28T09:12:48.796Z,57.56
2022-07-28T09:15:15.826Z,55.53
2022-07-28T09:17:42.983Z,55.45
2022-07-28T09:20:13.190Z,54.84
2022-07-28T09:23:43.124Z,54.28
2022-07-28T09:26:11.244Z,54.58
2022-07-28T09:28:47.483Z,53.36
2022-07-28T09:31:14.323Z,53.94
2022-07-28T09:33:53.508Z,53.13
2022-07-28T09:36:20.849Z,53.32
2022-07-28T09:38:47.575Z,52.50
2022-07-28T09:41:14.954Z,51.43
2022-07-28T09:43:44.138Z,51.92
2022-07-28T09:46:21.766Z,51.23
2022-07-28T09:48:59.158Z,49.92
2022-07-28T09:51:28.486Z,49.48
2022-07-28T09:54:07.243Z,48.32
2022-07-28T09:56:34.459Z,47.39
2022-07-28T09:59:03.323Z,48.37
2022-07-28T10:01:31.744Z,48.09
2022-07-28T10:04:03.819Z,48.34
2022-07-28T10:06:34.476Z,47.83
2022-07-28T10:09:04.035Z,47.38
2022-07-28T10:11:31.187Z,47.22
2022-07-28T10:14:03.431Z,46.27
2022-07-28T10:16:36.546Z,46.67
2022-07-28T10:19:05.969Z,47.01
2022-07-28T10:21:36.007Z,46.37
2022-07-28T10:24:06.086Z,45.51
2022-07-28T10:26:38.009Z,44.82
2022-07-28T10:29:09.370Z,44.68
2022-07-28T10:31:46.984Z,44.81
2022-07-28T10:34:24.746Z,43.41
2022-07-28T10:36:54.676Z,43.81
2022-07-28T10:39:23.940Z,43.19
2022-07-28T10:41:50.929Z,43.08
2022-07-28T10:44:19.989Z,43.48
2022-07-28T10:46:47.284Z,43.00
2022-07-28T10:49:14.829Z,43.14
2022-07-28T10:52:02.186Z,42.58
2022-07-28T10:54:31.906Z,41.92
2022-07-28T10:57:04.801Z,41.29
2022-07-28T11:00:13.344Z,40.71
2022-07-28T11:02:53.008Z,39.84
2022-07-28T11:05:31.502Z,40.13
2022-07-28T11:08:06.822Z,40.23
2022-07-28T11:10:47.410Z,39.52
2022-07-28T11:13:29.832Z,40.02
2022-07-28T11:16:16.615Z,39.69
2022-07-28T11:19:01.831Z,39.29
2022-07-28T11:21:31.534Z,39.63
2022-07-28T11:24:07.473Z,39.43
2022-07-28T11:26:36.037Z,39.76
2022-07-28T11:29:08.533Z,39.64
2022-07-28T11:31:44.816Z,38.31
2022-07-28T11:34:13.314Z,39.09
2022-07-28T11:36:58.805Z,37.71
2022-07-28T11:39:26.917Z,38.29
2022-07-28T11:41:53.615Z,37.44
2022-07-28T11:44:30.140Z,36.79
2022-07-28T11:47:26.259Z,35.54
2022-07-28T11:50:15.720Z,35.86
2022-07-28T11:52:56.212Z,36.07
2022-07-28T11:55:49.388Z,35.90
2022-07-28T11:58:23.964Z,36.05
2022-07-28T12:01:19.689Z,35.43
2022-07-28T12:03:56.180Z,34.44
2022-07-28T12:06:35.334Z,34.39
2022-07-28T12:09:05.632Z,34.09
2022-07-28T12:11:37.088Z,33.65
2022-07-28T12:14:17.597Z,33.24
2022-07-28T12:16:46.077Z,33.58
2022-07-28T12:19:16.516Z,32.53
2022-07-28T12:21:56.619Z,32.36
2022-07-28T12:24:30.196Z,31.09
2022-07-28T12:27:00.648Z,31.80
2022-07-28T12:29:35.627Z,32.07
2022-07-28T12:32:09.990Z,30.56
2022-07-28T12:34:39.886Z,30.56
2022-07-28T12:37:11.096Z,31.06
2022-07-28T12:39:43.307Z,30.66
2022-07-28T12:42:12.335Z,29.53
2022-07-28T12:44:42.431Z,30.31
2022-07-28T12:47:12.137Z,30.18
2022-07-28T12:49:40.832Z,29.58
2022-07-28T12:52:25.136Z,28.35
2022-07-28T12:54:55.226Z,29.56
2022-07-28T12:57:48.016Z,28.58
2022-07-28T13:00:19.242Z,29.66
2022-07-28T13:02:46.217Z,29.49
2022-07-28T13:05:26.839Z,29.55
2022-07-28T13:08:05.842Z,29.30
2022-07-28T13:10:33.132Z,29.77
2022-07-28T13:13:07.600Z,29.66
2022-07-28T13:15:34.506Z,30.21
2022-07-28T13:18:01.363Z,30.14
2022-07-28T13:20:28.349Z,29.80
2022-07-28T13:22:57.235Z,29.39
2022-07-28T13:25:23.766Z,29.57
2022-07-28T13:27:55.073Z,29.23
2022-07-28T13:30:23.367Z,28.78
2022-07-28T13:32:50.261Z,28.83
2022-07-28T13:35:19.131Z,28.68
2022-07-28T13:37:47.621Z,28.54
2022-07-28T13:40:14.704Z,28.39
2022-07-28T13:42:52.931Z,28.37
2022-07-28T13:45:23.695Z,29.01
2022-07-28T13:47:52.139Z,29.00
2022-07-28T13:50:19.391Z,28.88
2022-07-28T13:52:45.896Z,28.92
2022-07-28T13:55:12.501Z,28.58
2022-07-28T13:57:42.910Z,28.55
2022-07-28T14:00:10.304Z,28.42
2022-07-28T14:02:38.503Z,27.97
2022-07-28T14:05:11.020Z,28.54
2022-07-28T14:07:37.744Z,28.69
2022-07-28T14:10:07.013Z,28.54
2022-07-28T14:12:33.938Z,28.86
2022-07-28T14:15:04.887Z,29.06
2022-07-28T14:17:46.828Z,28.92
2022-07-28T14:20:15.513Z,28.40
2022-07-28T14:22:43.368Z,28.68
2022-07-28T14:25:10.384Z,28.76
2022-07-28T14:27:37.695Z,28.79
2022-07-28T14:30:05.501Z,28.93
2022-07-28T14:32:32.940Z,28.85
2022-07-28T14:34:59.780Z,28.65
2022-07-28T14:37:31.451Z,28.67
2022-07-28T14:40:08.238Z,28.88
2022-07-28T14:42:34.777Z,28.66
2022-07-28T14:45:02.541Z,28.51
2022-07-28T14:47:44.797Z,28.22
2022-07-28T14:50:12.738Z,28.65
2022-07-28T14:52:39.541Z,28.63
2022-07-28T14:55:06.595Z,28.22
2022-07-28T14:57:48.427Z,28.55
2022-07-28T15:00:19.271Z,28.84
2022-07-28T15:02:45.952Z,28.75
2022-07-28T15:05:12.792Z,28.73
2022-07-28T15:07:39.699Z,28.61
2022-07-28T15:10:06.620Z,28.89
2022-07-28T15:12:33.127Z,28.92
2022-07-28T15:14:59.836Z,29.13
2022-07-28T15:17:26.288Z,29.47
2022-07-28T15:19:52.813Z,29.35
2022-07-28T15:22:19.535Z,29.56
2022-07-28T15:24:46.054Z,29.55
2022-07-28T15:27:12.821Z,29.75
2022-07-28T15:29:39.366Z,29.91
2022-07-28T15:32:10.808Z,30.57
2022-07-28T15:34:39.791Z,30.86
2022-07-28T15:37:06.770Z,31.01
2022-07-28T15:39:33.845Z,31.03
2022-07-28T15:42:00.576Z,31.31
2022-07-28T15:44:29.781Z,31.41
2022-07-28T15:46:56.597Z,31.72
2022-07-28T15:49:23.500Z,32.02
2022-07-28T15:51:50.109Z,32.10
2022-07-28T15:54:16.847Z,31.99
2022-07-28T15:56:43.592Z,32.64
2022-07-28T15:59:10.099Z,32.23
2022-07-28T16:01:38.876Z,32.39
2022-07-28T16:04:07.654Z,32.53
2022-07-28T16:06:52.824Z,32.61
2022-07-28T16:09:20.472Z,32.28
2022-07-28T16:11:47.280Z,32.27
2022-07-28T16:14:18.057Z,32.48
2022-07-28T16:16:45.203Z,32.49
2022-07-28T16:19:31.675Z,32.26
2022-07-28T16:21:58.221Z,33.06
2022-07-28T16:24:24.756Z,32.59
2022-07-28T16:26:51.324Z,32.78
2022-07-28T16:29:18.554Z,33.12
2022-07-28T16:31:45.574Z,33.44
2022-07-28T16:34:12.478Z,33.66
2022-07-28T16:36:39.967Z,33.83
2022-07-28T16:39:09.332Z,33.94
2022-07-28T16:41:46.589Z,34.16
2022-07-28T16:44:14.593Z,34.40
2022-07-28T16:46:42.082Z,34.43
2022-07-28T16:49:08.644Z,34.72
2022-07-28T16:51:35.260Z,35.13
2022-07-28T16:54:01.949Z,35.12
2022-07-28T16:56:28.503Z,35.02
2022-07-28T16:58:55.025Z,35.64
2022-07-28T17:01:21.621Z,35.87
2022-07-28T17:03:48.168Z,35.86
2022-07-28T17:06:15.737Z,35.94
2022-07-28T17:08:42.241Z,35.91
2022-07-28T17:11:08.816Z,35.71
2022-07-28T17:13:35.338Z,35.96
2022-07-28T17:16:03.792Z,36.09
2022-07-28T17:18:30.753Z,36.21
2022-07-28T17:20:57.375Z,36.33
2022-07-28T17:23:23.936Z,36.67
2022-07-28T17:26:21.216Z,36.90
2022-07-28T17:28:37.057Z,36.83
2022-07-28T17:31:03.701Z,36.89
2022-07-28T17:33:31.304Z,36.96
2022-07-28T17:35:58.088Z,37.11
2022-07-28T17:38:30.963Z,37.37
2022-07-28T17:41:03.641Z,37.47
2022-07-28T17:43:31.144Z,37.46
2022-07-28T17:45:57.967Z,37.59
2022-07-28T17:48:28.430Z,37.81
2022-07-28T17:50:55.066Z,37.96
2022-07-28T17:53:23.502Z,37.75
2022-07-28T17:55:59.965Z,37.84
2022-07-28T17:58:32.304Z,38.31
2022-07-28T18:01:10.195Z,38.18
2022-07-28T18:03:57.691Z,38.32
2022-07-28T18:06:29.345Z,38.25
2022-07-28T18:08:55.985Z,38.45
2022-07-28T18:11:22.551Z,38.53
2022-07-28T18:14:04.417Z,38.78
2022-07-28T18:16:35.762Z,39.15
2022-07-28T18:19:02.959Z,38.96
2022-07-28T18:21:29.821Z,39.27
2022-07-28T18:23:56.390Z,39.18
2022-07-28T18:26:22.981Z,39.35
2022-07-28T18:28:49.798Z,39.36
2022-07-28T18:31:16.492Z,39.37
2022-07-28T18:33:43.106Z,39.56
2022-07-28T18:36:10.085Z,39.42
2022-07-28T18:38:36.593Z,39.50
2022-07-28T18:41:03.114Z,39.73
2022-07-28T18:43:29.636Z,39.80
2022-07-28T18:45:56.237Z,39.96
2022-07-28T18:48:25.337Z,39.98
2022-07-28T18:50:52.039Z,40.28
2022-07-28T18:53:18.673Z,40.31
2022-07-28T18:55:45.188Z,40.40
2022-07-28T18:58:11.706Z,40.54
2022-07-28T19:00:38.260Z,40.46
2022-07-28T19:03:04.870Z,40.57
2022-07-28T19:05:36.946Z,40.72
2022-07-28T19:08:05.026Z,40.82
2022-07-28T19:10:32.327Z,40.87
2022-07-28T19:12:58.974Z,41.20
2022-07-28T19:15:25.612Z,41.54
2022-07-28T19:18:08.847Z,41.46
2022-07-28T19:20:39.479Z,41.71
2022-07-28T19:23:06.018Z,41.64
2022-07-28T19:25:35.530Z,41.91
2022-07-28T19:28:02.059Z,42.17
2022-07-28T19:30:30.246Z,42.10
2022-07-28T19:32:56.796Z,42.32
2022-07-28T19:35:23.422Z,42.40
2022-07-28T19:37:50.791Z,42.35
2022-07-28T19:40:17.394Z,42.85
2022-07-28T19:42:43.982Z,42.92
2022-07-28T19:45:10.605Z,43.18
2022-07-28T19:47:37.300Z,42.98
2022-07-28T19:50:05.235Z,43.24
2022-07-28T19:52:31.962Z,43.48
2022-07-28T19:54:58.511Z,43.83
2022-07-28T19:57:26.682Z,43.48
2022-07-28T19:59:53.298Z,43.93
2022-07-28T20:02:19.824Z,44.28
2022-07-28T20:04:46.458Z,44.08
2022-07-28T20:07:12.976Z,44.10
2022-07-28T20:09:39.781Z,44.50
2022-07-28T20:12:07.866Z,44.27
2022-07-28T20:14:36.108Z,44.47
2022-07-28T20:17:03.068Z,44.65
2022-07-28T20:19:30.126Z,44.59
2022-07-28T20:21:57.219Z,45.07
2022-07-28T20:24:24.013Z,44.85
2022-07-28T20:26:50.522Z,45.01
2022-07-28T20:29:17.016Z,45.11
2022-07-28T20:31:43.624Z,45.13
2022-07-28T20:34:12.980Z,45.20
2022-07-28T20:36:39.717Z,45.10
2022-07-28T20:39:27.412Z,45.27
2022-07-28T20:41:52.812Z,45.00
2022-07-28T20:44:30.006Z,45.61
2022-07-28T20:47:00.179Z,45.24
2022-07-28T20:49:28.339Z,45.58
2022-07-28T20:51:55.746Z,45.10
2022-07-28T20:54:22.326Z,45.59
2022-07-28T20:56:48.860Z,45.41
2022-07-28T20:59:15.425Z,45.26
2022-07-28T21:01:42.409Z,45.57
2022-07-28T21:04:11.419Z,45.34
2022-07-28T21:06:38.741Z,45.49
2022-07-28T21:09:05.558Z,45.26
2022-07-28T21:11:34.735Z,45.20
2022-07-28T21:14:01.974Z,45.10
2022-07-28T21:16:29.579Z,45.44
2022-07-28T21:18:56.245Z,45.34
2022-07-28T21:21:22.847Z,45.19
2022-07-28T21:23:49.621Z,45.26
2022-07-28T21:26:16.652Z,45.41
2022-07-28T21:29:01.586Z,45.50
2022-07-28T21:31:28.131Z,45.41
2022-07-28T21:33:54.787Z,45.47
2022-07-28T21:36:21.348Z,45.55
2022-07-28T21:38:47.849Z,45.60
2022-07-28T21:41:14.373Z,45.50
2022-07-28T21:43:41.215Z,45.74
2022-07-28T21:46:07.880Z,45.73
2022-07-28T21:48:34.396Z,45.73
2022-07-28T21:51:00.983Z,45.85
2022-07-28T21:53:27.503Z,45.57
2022-07-28T21:55:54.082Z,45.70
2022-07-28T21:58:21.154Z,45.73
2022-07-28T22:00:47.718Z,45.97
2022-07-28T22:03:14.335Z,45.79
2022-07-28T22:05:41.287Z,45.80
2022-07-28T22:08:08.680Z,45.95
2022-07-28T22:10:35.363Z,45.90
2022-07-28T22:13:01.861Z,46.67
2022-07-28T22:15:28.580Z,46.46
2022-07-28T22:17:55.136Z,46.28
2022-07-28T22:20:21.800Z,46.61
2022-07-28T22:22:48.271Z,46.94
2022-07-28T22:25:14.783Z,46.85
2022-07-28T22:27:41.376Z,47.62
2022-07-28T22:30:08.377Z,47.38
2022-07-28T22:32:34.932Z,46.90
2022-07-28T22:35:01.631Z,47.15
2022-07-28T22:37:28.238Z,47.24
2022-07-28T22:39:54.826Z,47.47
2022-07-28T22:42:21.514Z,47.32
2022-07-28T22:44:48.616Z,47.28
2022-07-28T22:47:15.163Z,48.15
2022-07-28T22:49:41.640Z,47.78
2022-07-28T22:52:08.126Z,47.71
2022-07-28T22:54:39.054Z,48.53
2022-07-28T22:57:06.212Z,48.26
2022-07-28T22:59:35.680Z,48.30
2022-07-28T23:02:06.416Z,48.29
2022-07-28T23:04:33.379Z,48.36
2022-07-28T23:06:59.919Z,48.95
2022-07-28T23:09:26.811Z,48.54
2022-07-28T23:11:55.806Z,48.77
2022-07-28T23:14:22.889Z,48.76
2022-07-28T23:16:49.864Z,48.88
2022-07-28T23:19:16.473Z,49.12
2022-07-28T23:21:43.217Z,49.25
2022-07-28T23:24:09.792Z,49.05
2022-07-28T23:26:36.325Z,49.51
2022-07-28T23:29:02.939Z,49.25
2022-07-28T23:31:29.566Z,49.67
2022-07-28T23:33:57.680Z,49.19
2022-07-28T23:36:26.914Z,49.50
2022-07-28T23:38:58.755Z,49.42
2022-07-28T23:41:26.587Z,49.65
2022-07-28T23:43:53.275Z,49.19
2022-07-28T23:46:19.877Z,49.69
2022-07-28T23:48:46.490Z,49.27
2022-07-28T23:51:14.096Z,49.41
2022-07-28T23:53:43.963Z,49.43
2022-07-28T23:56:10.555Z,49.56
2022-07-28T23:58:37.076Z,49.54
